createdAt,value
2023-03-19T00:01:14.374Z,73.95
2023-03-19T00:03:43.023Z,73.93
2023-03-19T00:06:12.132Z,73.43
2023-03-19T00:08:41.956Z,73.39
2023-03-19T00:11:15.050Z,72.91
2023-03-19T00:13:43.274Z,73.21
2023-03-19T00:16:11.852Z,72.72
2023-03-19T00:18:40.589Z,72.83
2023-03-19T00:21:09.701Z,73.16
2023-03-19T00:23:38.218Z,72.76
2023-03-19T00:26:06.689Z,72.34
2023-03-19T00:28:35.596Z,71.71
2023-03-19T00:31:17.212Z,71.82
2023-03-19T00:33:46.501Z,71.95
2023-03-19T00:36:16.433Z,72.30
2023-03-19T00:38:46.701Z,72.13
2023-03-19T00:41:15.500Z,71.99
2023-03-19T00:43:43.925Z,72.75
2023-03-19T00:46:12.465Z,72.00
2023-03-19T00:48:40.621Z,72.05
2023-03-19T00:51:11.549Z,72.48
2023-03-19T00:53:44.775Z,72.50
2023-03-19T00:56:15.449Z,72.24
2023-03-19T00:58:43.981Z,71.47
2023-03-19T01:01:14.698Z,70.92
2023-03-19T01:03:42.968Z,70.44
2023-03-19T01:06:11.628Z,70.19
2023-03-19T01:08:40.582Z,70.31
2023-03-19T01:11:17.118Z,70.21
2023-03-19T01:13:45.620Z,69.42
2023-03-19T01:16:14.259Z,69.15
2023-03-19T01:18:42.361Z,68.53
2023-03-19T01:21:10.752Z,69.21
2023-03-19T01:23:39.216Z,68.93
2023-03-19T01:26:08.656Z,69.23
2023-03-19T01:28:37.321Z,69.18
2023-03-19T01:31:09.982Z,68.70
2023-03-19T01:33:39.315Z,68.60
2023-03-19T01:36:08.718Z,68.53
2023-03-19T01:38:37.258Z,68.55
2023-03-19T01:41:05.593Z,69.40
2023-03-19T01:43:34.263Z,69.07
2023-03-19T01:46:41.259Z,69.47
2023-03-19T01:49:11.900Z,69.56
2023-03-19T01:51:43.336Z,69.57
2023-03-19T01:54:17.083Z,69.61
2023-03-19T01:56:48.463Z,70.08
2023-03-19T01:59:24.098Z,70.19
2023-03-19T02:02:03.872Z,70.42
2023-03-19T02:04:34.135Z,70.40
2023-03-19T02:07:03.765Z,70.60
2023-03-19T02:09:32.818Z,70.47
2023-03-19T02:12:02.890Z,70.58
2023-03-19T02:14:31.573Z,70.70
2023-03-19T02:17:00.122Z,70.84
2023-03-19T02:19:55.875Z,70.78
2023-03-19T02:22:28.404Z,70.61
2023-03-19T02:25:14.021Z,70.26
2023-03-19T02:27:43.002Z,70.31
2023-03-19T02:30:41.217Z,70.78
2023-03-19T02:33:16.126Z,70.73
2023-03-19T02:35:47.517Z,70.75
2023-03-19T02:38:16.601Z,70.54
2023-03-19T02:41:00.275Z,70.68
2023-03-19T02:43:29.732Z,70.87
2023-03-19T02:45:58.312Z,71.35
2023-03-19T02:48:26.837Z,71.06
2023-03-19T02:50:55.655Z,71.26
2023-03-19T02:53:24.179Z,70.55
2023-03-19T02:55:52.669Z,70.37
2023-03-19T02:58:21.342Z,70.90
2023-03-19T03:00:49.853Z,70.86
2023-03-19T03:03:18.462Z,71.08
2023-03-19T03:05:47.075Z,71.29
2023-03-19T03:08:15.999Z,70.75
2023-03-19T03:10:44.497Z,70.61
2023-03-19T03:13:12.605Z,70.57
2023-03-19T03:15:41.726Z,70.04
2023-03-19T03:18:10.312Z,69.97
2023-03-19T03:20:38.863Z,70.03
2023-03-19T03:23:07.485Z,69.81
2023-03-19T03:25:36.464Z,69.95
2023-03-19T03:28:04.982Z,70.07
2023-03-19T03:30:33.353Z,70.52
2023-03-19T03:33:01.732Z,70.09
2023-03-19T03:35:30.264Z,70.31
2023-03-19T03:37:59.186Z,69.98
2023-03-19T03:40:27.733Z,69.97
2023-03-19T03:42:55.913Z,69.95
2023-03-19T03:45:24.077Z,69.55
2023-03-19T03:47:52.728Z,69.50
2023-03-19T03:50:21.206Z,69.34
2023-03-19T03:52:49.944Z,69.49
2023-03-19T03:55:18.122Z,69.30
2023-03-19T03:57:46.781Z,69.35
2023-03-19T04:00:15.665Z,69.35
2023-03-19T04:02:44.146Z,69.01
2023-03-19T04:05:12.687Z,68.66
2023-03-19T04:07:41.335Z,69.04
2023-03-19T04:10:10.949Z,68.57
2023-03-19T04:12:39.962Z,68.51
2023-03-19T04:15:10.955Z,68.30
2023-03-19T04:17:40.470Z,68.49
2023-03-19T04:20:09.410Z,68.85
2023-03-19T04:22:37.823Z,68.97
2023-03-19T04:25:08.280Z,68.83
2023-03-19T04:27:36.925Z,68.39
2023-03-19T04:30:06.128Z,68.66
2023-03-19T04:32:35.780Z,68.57
2023-03-19T04:35:04.522Z,69.12
2023-03-19T04:37:33.070Z,69.65
2023-03-19T04:40:01.197Z,69.76
2023-03-19T04:42:29.372Z,69.75
2023-03-19T04:44:58.186Z,70.18
2023-03-19T04:47:26.316Z,70.36
2023-03-19T04:49:54.789Z,70.66
2023-03-19T04:52:22.828Z,70.93
2023-03-19T04:54:50.949Z,70.77
2023-03-19T04:57:19.443Z,70.95
2023-03-19T04:59:47.883Z,71.47
2023-03-19T05:02:15.977Z,71.53
2023-03-19T05:04:44.206Z,72.12
2023-03-19T05:07:13.564Z,72.17
2023-03-19T05:09:43.174Z,72.31
2023-03-19T05:12:12.787Z,72.03
2023-03-19T05:14:40.976Z,72.45
2023-03-19T05:17:11.194Z,72.21
2023-03-19T05:19:42.851Z,72.28
2023-03-19T05:22:11.560Z,73.02
2023-03-19T05:24:40.074Z,72.51
2023-03-19T05:27:08.513Z,72.74
2023-03-19T05:29:40.454Z,73.33
2023-03-19T05:32:10.383Z,73.68
2023-03-19T05:34:39.102Z,73.77
2023-03-19T05:37:08.699Z,73.70
2023-03-19T05:39:37.277Z,74.23
2023-03-19T05:42:09.769Z,74.23
2023-03-19T05:44:38.440Z,74.17
2023-03-19T05:47:07.073Z,74.09
2023-03-19T05:49:35.648Z,74.37
2023-03-19T05:52:04.111Z,74.01
2023-03-19T05:54:32.642Z,73.43
2023-03-19T05:57:01.456Z,73.53
2023-03-19T05:59:30.210Z,73.47
2023-03-19T06:01:58.633Z,73.51
2023-03-19T06:04:31.208Z,73.37
2023-03-19T06:06:59.733Z,72.95
2023-03-19T06:09:28.342Z,72.75
2023-03-19T06:11:59.235Z,73.08
2023-03-19T06:14:27.919Z,73.10
2023-03-19T06:16:57.811Z,73.10
2023-03-19T06:19:26.519Z,73.13
2023-03-19T06:21:55.042Z,72.38
2023-03-19T06:24:23.463Z,72.18
2023-03-19T06:26:51.596Z,71.83
2023-03-19T06:29:19.745Z,71.46
2023-03-19T06:31:48.756Z,71.30
2023-03-19T06:34:17.328Z,70.98
2023-03-19T06:36:45.986Z,70.22
2023-03-19T06:39:14.421Z,69.57
2023-03-19T06:41:43.082Z,69.70
2023-03-19T06:44:11.729Z,69.37
2023-03-19T06:46:40.666Z,68.98
2023-03-19T06:49:09.105Z,68.58
2023-03-19T06:51:37.833Z,68.12
2023-03-19T06:54:06.654Z,67.96
2023-03-19T06:56:34.939Z,67.56
2023-03-19T06:59:03.443Z,67.60
2023-03-19T07:01:32.085Z,67.44
2023-03-19T07:04:00.830Z,67.54
2023-03-19T07:06:30.125Z,67.21
2023-03-19T07:08:58.867Z,67.05
2023-03-19T07:11:27.426Z,66.78
2023-03-19T07:13:55.959Z,66.52
2023-03-19T07:16:24.544Z,66.47
2023-03-19T07:18:52.962Z,66.45
2023-03-19T07:21:21.658Z,65.93
2023-03-19T07:23:50.777Z,65.91
2023-03-19T07:26:19.874Z,65.83
2023-03-19T07:28:50.000Z,65.23
2023-03-19T07:31:18.659Z,64.87
2023-03-19T07:33:46.813Z,64.72
2023-03-19T07:36:15.220Z,64.81
2023-03-19T07:38:43.500Z,64.90
2023-03-19T07:41:11.944Z,64.62
2023-03-19T07:43:40.662Z,64.29
2023-03-19T07:46:09.207Z,64.35
2023-03-19T07:48:37.521Z,63.88
2023-03-19T07:51:08.322Z,63.58
2023-03-19T07:53:38.676Z,63.52
2023-03-19T07:56:07.660Z,63.34
2023-03-19T07:58:36.077Z,62.98
2023-03-19T08:01:04.664Z,62.98
2023-03-19T08:03:33.155Z,63.16
2023-03-19T08:06:01.951Z,63.22
2023-03-19T08:08:35.052Z,63.63
2023-03-19T08:11:04.409Z,63.25
2023-03-19T08:13:32.864Z,63.14
2023-03-19T08:16:01.475Z,63.02
2023-03-19T08:18:30.006Z,62.65
2023-03-19T08:20:58.286Z,62.31
2023-03-19T08:23:27.236Z,61.75
2023-03-19T08:25:57.194Z,61.56
2023-03-19T08:28:25.983Z,61.16
2023-03-19T08:30:55.839Z,61.12
2023-03-19T08:33:27.350Z,60.40
2023-03-19T08:35:56.058Z,60.60
2023-03-19T08:38:24.489Z,60.31
2023-03-19T08:40:53.004Z,60.11
2023-03-19T08:43:21.644Z,59.41
2023-03-19T08:45:50.660Z,59.17
2023-03-19T08:48:19.638Z,58.99
2023-03-19T08:50:53.668Z,58.57
2023-03-19T08:53:22.216Z,58.43
2023-03-19T08:56:01.473Z,58.90
2023-03-19T08:58:30.217Z,58.99
2023-03-19T09:01:10.963Z,59.35
2023-03-19T09:03:45.102Z,58.57
2023-03-19T09:06:15.615Z,58.97
2023-03-19T09:08:44.750Z,59.15
2023-03-19T09:11:14.551Z,59.08
2023-03-19T09:13:43.514Z,58.97
2023-03-19T09:16:12.051Z,58.41
2023-03-19T09:18:43.715Z,58.24
2023-03-19T09:21:12.142Z,57.93
2023-03-19T09:23:40.663Z,57.82
2023-03-19T09:26:09.202Z,57.64
2023-03-19T09:28:40.387Z,58.08
2023-03-19T09:31:12.118Z,58.15
2023-03-19T09:33:40.370Z,58.63
2023-03-19T09:36:09.602Z,58.50
2023-03-19T09:38:38.092Z,58.28
2023-03-19T09:41:42.088Z,57.72
2023-03-19T09:44:21.508Z,57.25
2023-03-19T09:47:37.788Z,57.27
2023-03-19T09:50:13.942Z,56.69
2023-03-19T09:52:51.275Z,56.43
2023-03-19T09:55:26.255Z,55.38
2023-03-19T09:57:57.744Z,54.91
2023-03-19T10:00:29.500Z,54.93
2023-03-19T10:03:42.449Z,54.96
2023-03-19T10:06:36.850Z,54.38
2023-03-19T10:09:36.497Z,53.94
2023-03-19T10:12:40.238Z,53.71
2023-03-19T10:15:23.748Z,54.08
2023-03-19T10:18:07.504Z,53.83
2023-03-19T10:20:53.617Z,53.83
2023-03-19T10:23:48.354Z,53.89
2023-03-19T10:26:20.621Z,53.85
2023-03-19T10:29:22.505Z,53.70
2023-03-19T10:32:00.758Z,53.72
2023-03-19T10:34:35.655Z,53.02
2023-03-19T10:37:16.556Z,53.35
2023-03-19T10:39:46.656Z,53.58
2023-03-19T10:42:52.327Z,52.75
2023-03-19T10:45:32.550Z,53.68
2023-03-19T10:48:04.036Z,53.05
2023-03-19T10:50:39.765Z,53.53
2023-03-19T10:53:14.033Z,53.50
2023-03-19T10:56:20.625Z,54.07
2023-03-19T10:59:22.714Z,54.37
2023-03-19T11:01:51.513Z,54.05
2023-03-19T11:04:23.400Z,53.63
2023-03-19T11:06:54.851Z,53.21
2023-03-19T11:09:36.554Z,53.38
2023-03-19T11:12:30.448Z,53.67
2023-03-19T11:14:59.996Z,53.05
2023-03-19T11:17:51.940Z,52.80
2023-03-19T11:20:29.194Z,52.98
2023-03-19T11:23:02.677Z,53.04
2023-03-19T11:25:42.882Z,54.01
2023-03-19T11:28:20.589Z,53.41
2023-03-19T11:31:22.582Z,53.77
2023-03-19T11:34:20.814Z,54.45
2023-03-19T11:37:08.632Z,54.58
2023-03-19T11:39:49.046Z,54.38
2023-03-19T11:42:48.038Z,54.27
2023-03-19T11:45:34.951Z,54.83
2023-03-19T11:48:07.393Z,54.90
2023-03-19T11:50:47.090Z,55.13
2023-03-19T11:53:53.576Z,55.91
2023-03-19T11:56:50.287Z,55.77
2023-03-19T11:59:59.373Z,56.19
2023-03-19T12:02:32.608Z,56.47
2023-03-19T12:05:13.697Z,55.98
2023-03-19T12:08:17.510Z,55.32
2023-03-19T12:11:39.935Z,55.29
2023-03-19T12:14:30.266Z,55.49
2023-03-19T12:17:08.563Z,54.52
2023-03-19T12:19:56.556Z,54.71
2023-03-19T12:23:30.504Z,54.90
2023-03-19T12:26:13.302Z,55.14
2023-03-19T12:29:05.048Z,55.61
2023-03-19T12:31:48.568Z,56.14
2023-03-19T12:34:20.044Z,57.03
2023-03-19T12:37:30.240Z,57.71
2023-03-19T12:40:39.852Z,58.80
2023-03-19T12:43:35.783Z,58.75
2023-03-19T12:46:15.033Z,59.45
2023-03-19T12:48:52.750Z,61.21
2023-03-19T12:51:27.533Z,62.98
2023-03-19T12:54:06.422Z,64.78
2023-03-19T12:56:48.480Z,65.88
2023-03-19T12:59:40.093Z,66.99
2023-03-19T13:02:42.525Z,67.82
2023-03-19T13:05:18.398Z,67.92
2023-03-19T13:08:20.622Z,68.71
2023-03-19T13:10:49.077Z,69.02
2023-03-19T13:13:43.042Z,69.32
2023-03-19T13:16:41.426Z,69.05
2023-03-19T13:19:21.761Z,69.78
2023-03-19T13:21:54.258Z,69.91
2023-03-19T13:24:43.330Z,70.26
2023-03-19T13:27:28.089Z,70.76
2023-03-19T13:30:18.879Z,71.69
2023-03-19T13:33:03.181Z,72.23
2023-03-19T13:35:53.975Z,72.50
2023-03-19T13:38:28.720Z,73.05
2023-03-19T13:41:00.343Z,73.86
2023-03-19T13:43:31.721Z,73.87
2023-03-19T13:46:12.126Z,74.12
2023-03-19T13:48:53.868Z,74.90
2023-03-19T13:51:22.245Z,76.00
2023-03-19T13:53:56.947Z,77.35
2023-03-19T13:56:30.437Z,79.13
2023-03-19T13:59:27.862Z,81.74
2023-03-19T14:01:57.391Z,83.83
2023-03-19T14:04:32.398Z,85.11
2023-03-19T14:07:20.051Z,85.64
2023-03-19T14:09:52.929Z,86.38
2023-03-19T14:12:21.345Z,86.74
2023-03-19T14:15:10.537Z,87.74
2023-03-19T14:17:41.936Z,88.96
2023-03-19T14:20:13.249Z,89.71
2023-03-19T14:22:42.383Z,89.51
2023-03-19T14:25:26.248Z,89.52
2023-03-19T14:28:02.284Z,89.41
2023-03-19T14:30:50.486Z,89.71
2023-03-19T14:33:48.193Z,89.64
2023-03-19T14:36:21.804Z,89.82
2023-03-19T14:38:54.273Z,90.16
2023-03-19T14:41:25.296Z,89.95
2023-03-19T14:44:08.155Z,89.48
2023-03-19T14:47:01.218Z,89.24
2023-03-19T14:49:29.703Z,89.14
2023-03-19T14:52:13.126Z,89.00
2023-03-19T14:54:57.225Z,89.00
2023-03-19T14:57:34.696Z,89.05
2023-03-19T15:00:06.585Z,89.37
2023-03-19T15:02:45.275Z,89.43
2023-03-19T15:05:23.900Z,89.24
2023-03-19T15:07:57.675Z,89.19
2023-03-19T15:10:30.933Z,89.40
2023-03-19T15:13:39.413Z,89.02
2023-03-19T15:16:14.080Z,88.81
2023-03-19T15:18:42.895Z,88.56
2023-03-19T15:21:11.641Z,87.99
2023-03-19T15:23:42.720Z,87.98
2023-03-19T15:26:11.984Z,87.35
2023-03-19T15:28:53.937Z,87.54
2023-03-19T15:31:33.886Z,87.72
2023-03-19T15:34:30.135Z,87.82
2023-03-19T15:37:15.934Z,87.94
2023-03-19T15:39:56.775Z,87.72
2023-03-19T15:42:28.011Z,87.70
2023-03-19T15:45:21.596Z,87.79
2023-03-19T15:48:25.875Z,87.91
2023-03-19T15:51:00.595Z,87.90
2023-03-19T15:53:32.604Z,88.25
2023-03-19T15:56:03.538Z,88.35
2023-03-19T15:58:39.588Z,88.30
2023-03-19T16:01:12.688Z,88.12
2023-03-19T16:04:07.156Z,88.05
2023-03-19T16:06:40.501Z,88.33
2023-03-19T16:09:35.195Z,88.14
2023-03-19T16:12:04.252Z,88.08
2023-03-19T16:14:43.669Z,88.11
2023-03-19T16:17:20.488Z,87.78
2023-03-19T16:20:04.120Z,87.97
2023-03-19T16:22:34.222Z,87.96
2023-03-19T16:25:06.890Z,87.85
2023-03-19T16:27:42.990Z,87.84
2023-03-19T16:30:25.734Z,87.65
2023-03-19T16:33:06.070Z,87.90
2023-03-19T16:35:36.733Z,87.91
2023-03-19T16:38:24.307Z,87.54
2023-03-19T16:41:24.349Z,87.60
2023-03-19T16:43:54.674Z,87.42
2023-03-19T16:46:29.263Z,87.05
2023-03-19T16:48:57.738Z,87.25
2023-03-19T16:51:25.865Z,87.21
2023-03-19T16:54:03.352Z,87.31
2023-03-19T16:56:32.253Z,87.22
2023-03-19T16:59:03.563Z,86.98
2023-03-19T17:01:32.275Z,87.07
2023-03-19T17:04:01.608Z,87.15
2023-03-19T17:06:35.775Z,87.50
2023-03-19T17:09:04.447Z,87.28
2023-03-19T17:11:40.153Z,87.45
2023-03-19T17:14:23.036Z,87.51
2023-03-19T17:16:52.169Z,87.41
2023-03-19T17:19:23.708Z,87.52
2023-03-19T17:21:55.649Z,87.59
2023-03-19T17:24:29.312Z,87.63
2023-03-19T17:27:00.710Z,87.62
2023-03-19T17:29:30.493Z,87.65
2023-03-19T17:32:02.034Z,87.69
2023-03-19T17:34:32.045Z,87.45
2023-03-19T17:37:03.479Z,87.30
2023-03-19T17:39:32.923Z,87.34
2023-03-19T17:42:02.061Z,87.42
2023-03-19T17:44:40.655Z,87.46
2023-03-19T18:20:40.886Z,88.08
2023-03-19T18:23:09.377Z,88.35
2023-03-19T18:25:37.773Z,88.55
2023-03-19T18:28:07.017Z,88.67
2023-03-19T18:30:37.916Z,88.74
2023-03-19T18:33:13.101Z,88.61
2023-03-19T18:35:44.979Z,88.58
2023-03-19T18:38:25.105Z,88.80
2023-03-19T18:40:55.116Z,88.90
2023-03-19T18:43:23.553Z,88.74
2023-03-19T18:45:54.691Z,88.78
2023-03-19T18:48:31.620Z,88.74
2023-03-19T18:51:00.158Z,88.97
2023-03-19T18:53:29.408Z,88.96
2023-03-19T18:55:58.131Z,89.08
2023-03-19T18:58:29.335Z,88.98
2023-03-19T19:00:57.566Z,89.07
2023-03-19T19:03:29.370Z,88.89
2023-03-19T19:05:58.373Z,88.73
2023-03-19T19:08:26.886Z,88.73
2023-03-19T19:11:03.276Z,88.79
2023-03-19T19:13:46.333Z,88.90
2023-03-19T19:16:32.387Z,89.38
2023-03-19T19:19:00.867Z,89.01
2023-03-19T19:21:29.293Z,89.05
2023-03-19T19:23:57.731Z,89.47
2023-03-19T19:26:29.225Z,89.30
2023-03-19T19:29:00.640Z,89.71
2023-03-19T19:31:32.344Z,89.59
2023-03-19T19:34:00.793Z,89.88
2023-03-19T19:36:29.619Z,90.16
2023-03-19T19:38:58.053Z,90.83
2023-03-19T19:41:27.608Z,90.79
2023-03-19T19:43:57.385Z,91.11
2023-03-19T19:46:26.156Z,91.26
2023-03-19T19:48:54.637Z,91.41
2023-03-19T19:51:26.259Z,91.67
2023-03-19T19:53:54.793Z,92.04
2023-03-19T19:56:26.680Z,92.25
2023-03-19T19:58:57.439Z,92.37
2023-03-19T20:01:27.378Z,92.55
2023-03-19T20:03:56.089Z,92.80
2023-03-19T20:06:36.663Z,93.10
2023-03-19T20:09:05.124Z,93.17
2023-03-19T20:11:33.522Z,93.32
2023-03-19T20:14:01.533Z,93.15
2023-03-19T20:16:30.036Z,93.18
2023-03-19T20:18:58.554Z,93.57
2023-03-19T20:21:28.981Z,93.54
2023-03-19T20:23:58.860Z,93.56
2023-03-19T20:26:27.795Z,93.66
2023-03-19T20:28:56.666Z,93.86
2023-03-19T20:31:31.101Z,93.99
2023-03-19T20:33:59.672Z,94.14
2023-03-19T20:36:28.044Z,94.20
2023-03-19T20:38:56.426Z,94.30
2023-03-19T20:41:27.749Z,94.56
2023-03-19T20:43:56.353Z,94.62
2023-03-19T20:46:25.054Z,94.56
2023-03-19T20:48:53.685Z,94.88
2023-03-19T20:51:26.087Z,94.78
2023-03-19T20:53:54.883Z,95.00
2023-03-19T20:56:24.669Z,95.33
2023-03-19T20:58:53.499Z,95.28
2023-03-19T21:01:22.014Z,95.25
2023-03-19T21:03:53.318Z,95.68
2023-03-19T21:06:26.036Z,95.95
2023-03-19T21:08:59.664Z,96.58
2023-03-19T21:11:43.101Z,96.52
2023-03-19T21:14:17.066Z,96.66
2023-03-19T21:16:45.532Z,96.82
2023-03-19T21:19:13.809Z,96.76
2023-03-19T21:21:42.867Z,96.95
2023-03-19T21:24:20.865Z,96.96
2023-03-19T21:26:50.084Z,96.93
2023-03-19T21:29:33.515Z,97.24
2023-03-19T21:32:01.693Z,97.19
2023-03-19T21:34:30.638Z,97.38
2023-03-19T21:36:59.037Z,97.36
2023-03-19T21:39:27.428Z,97.48
2023-03-19T21:41:57.130Z,97.56
2023-03-19T21:44:29.790Z,97.22
2023-03-19T21:46:58.350Z,97.42
2023-03-19T21:49:27.010Z,97.25
2023-03-19T21:51:57.110Z,97.48
2023-03-19T21:54:25.528Z,97.22
2023-03-19T21:56:53.929Z,97.21
2023-03-19T21:59:31.786Z,97.24
2023-03-19T22:02:00.686Z,97.36
2023-03-19T22:04:29.103Z,97.19
2023-03-19T22:06:57.594Z,97.09
2023-03-19T22:09:25.694Z,97.12
2023-03-19T22:11:53.858Z,97.31
2023-03-19T22:14:28.596Z,97.17
2023-03-19T22:16:57.932Z,96.88
2023-03-19T22:19:26.057Z,96.76
2023-03-19T22:21:55.221Z,96.74
2023-03-19T22:26:59.354Z,96.77
2023-03-19T22:29:27.897Z,96.57
2023-03-19T22:31:57.612Z,96.38
2023-03-19T22:34:29.054Z,96.08
2023-03-19T22:36:57.573Z,95.99
2023-03-19T22:39:26.052Z,95.84
2023-03-19T22:41:54.740Z,95.64
2023-03-19T22:44:30.969Z,95.78
2023-03-19T22:47:01.717Z,95.51
2023-03-19T22:49:31.525Z,95.55
2023-03-19T22:52:00.794Z,96.17
2023-03-19T22:54:28.845Z,96.13
2023-03-19T22:56:57.451Z,96.14
2023-03-19T22:59:25.900Z,96.11
2023-03-19T23:04:46.231Z,96.27
2023-03-19T23:07:15.069Z,95.98
2023-03-19T23:09:43.704Z,96.08
2023-03-19T23:12:12.149Z,95.89
2023-03-19T23:14:40.191Z,95.85
2023-03-19T23:17:18.508Z,95.64
2023-03-19T23:19:47.207Z,95.79
2023-03-19T23:22:17.799Z,95.25
2023-03-19T23:24:46.486Z,95.24
2023-03-19T23:27:26.787Z,95.05
2023-03-19T23:29:55.951Z,94.87
2023-03-19T23:32:24.370Z,95.05
2023-03-19T23:34:59.578Z,94.98
2023-03-19T23:37:29.569Z,94.70
2023-03-19T23:39:58.333Z,94.14
2023-03-19T23:42:30.442Z,94.10
2023-03-19T23:45:01.325Z,94.14
2023-03-19T23:47:31.103Z,94.03
2023-03-19T23:49:59.290Z,93.88
2023-03-19T23:52:27.846Z,94.29
2023-03-19T23:54:57.055Z,94.22
2023-03-19T23:57:26.689Z,94.30
2023-03-19T23:59:55.256Z,94.53
